Hlavní strana
METAR-TAF:

METAR-TAF

Letiště :

Zonguldak, Turecko

zeměpisná šířka: 41-27N, zeměpisná délka: 031-48E, výška: 136 m

METAR: chybějící

Čas: 08:16 (05:16 UTC)

Předpověď počasí

Zpráva byla vytvořena před 3 hodinami a 36 minutami, v 01:40 UTC
Předpověď platná od 05 v 03 UTC do 05 v 12 UTC
vítr z různých směrů 2 kt
Viditelnost 10 km a více
Polojasno ve výšce 3500 ft
Oblačno až skoro zataženo ve výšce 10000 ft
Dočasný
od 05 v 03 UTC do 05 v 07 UTC
Oblačno až skoro zataženo ve výšce 2500 ft
Oblačno až skoro zataženo ve výšce 8000 ft
slabé dešťové přeháňky
Dočasný
od 05 v 08 UTC do 05 v 12 UTC
Severoseverozápadní vítr 15 kt
Oblačno až skoro zataženo ve výšce 2500 ft
Oblačno až skoro zataženo ve výšce 8000 ft
dešťové přeháňky

TAF: LTAS 050140Z 0503/0512 VRB02KT 9999 SCT035 BKN100 TEMPO 0503/0507 -SHRA BKN025 BKN080 TEMPO 0508/0512 34015KT SHRA BKN025 BKN080

Stav a předpovědi počasí z více než 4 000 letišť (zprávy METAR a TAF).

Červené a žluté tečky na mapě představují dostupné meteorologické stanice.

Když kurzor umístíte na tečku, zobrazí se název stanice.

Pak kliknutím zobrazíte stav a předpověď počasí.

Chcete-li změnit mapu, kliknutím na zelené tlačítko se znaménkem +mapu přiblížíte, kliknutím na zelené tlačítko se znaménkem – mapu oddálíte a kliknutím na zelené šipky přejdete na sousední mapy.


METAR-TAF: